sensor_id;sensor_type;location;lat;lon;timestamp;P1;durP1;ratioP1;P2;durP2;ratioP2
69822;SDS011;57119;52.516;13.508;2023-11-21T00:00:04;13.07;;;5.70;;
69822;SDS011;57119;52.516;13.508;2023-11-21T00:02:36;11.17;;;5.53;;
69822;SDS011;57119;52.516;13.508;2023-11-21T00:05:03;12.75;;;6.13;;
69822;SDS011;57119;52.516;13.508;2023-11-21T00:07:29;14.18;;;6.45;;
69822;SDS011;57119;52.516;13.508;2023-11-21T00:09:55;14.10;;;6.70;;
69822;SDS011;57119;52.516;13.508;2023-11-21T00:12:21;15.65;;;6.35;;
69822;SDS011;57119;52.516;13.508;2023-11-21T00:14:46;14.33;;;6.60;;
69822;SDS011;57119;52.516;13.508;2023-11-21T00:17:12;14.83;;;6.60;;
69822;SDS011;57119;52.516;13.508;2023-11-21T00:19:37;15.75;;;6.65;;
69822;SDS011;57119;52.516;13.508;2023-11-21T00:22:02;22.57;;;9.00;;
69822;SDS011;57119;52.516;13.508;2023-11-21T00:24:28;20.13;;;8.63;;
69822;SDS011;57119;52.516;13.508;2023-11-21T00:26:53;23.20;;;8.83;;
69822;SDS011;57119;52.516;13.508;2023-11-21T00:29:19;21.90;;;9.07;;
69822;SDS011;57119;52.516;13.508;2023-11-21T00:31:44;22.03;;;9.70;;
69822;SDS011;57119;52.516;13.508;2023-11-21T00:34:11;20.40;;;8.83;;
69822;SDS011;57119;52.516;13.508;2023-11-21T00:36:38;24.10;;;9.30;;
69822;SDS011;57119;52.516;13.508;2023-11-21T00:39:03;25.43;;;10.43;;
69822;SDS011;57119;52.516;13.508;2023-11-21T00:41:30;31.80;;;11.70;;
69822;SDS011;57119;52.516;13.508;2023-11-21T00:43:56;27.80;;;11.05;;
69822;SDS011;57119;52.516;13.508;2023-11-21T00:46:22;29.17;;;11.30;;
69822;SDS011;57119;52.516;13.508;2023-11-21T00:48:49;30.33;;;11.68;;
69822;SDS011;57119;52.516;13.508;2023-11-21T00:51:14;35.10;;;12.00;;
69822;SDS011;57119;52.516;13.508;2023-11-21T00:53:40;31.07;;;11.70;;
69822;SDS011;57119;52.516;13.508;2023-11-21T00:56:05;29.20;;;11.50;;
69822;SDS011;57119;52.516;13.508;2023-11-21T00:58:31;36.90;;;12.80;;
69822;SDS011;57119;52.516;13.508;2023-11-21T01:00:57;27.63;;;11.60;;
69822;SDS011;57119;52.516;13.508;2023-11-21T01:03:22;35.45;;;12.90;;
69822;SDS011;57119;52.516;13.508;2023-11-21T01:05:48;33.90;;;11.90;;
69822;SDS011;57119;52.516;13.508;2023-11-21T01:08:15;32.22;;;12.30;;
69822;SDS011;57119;52.516;13.508;2023-11-21T01:10:40;36.40;;;12.60;;
69822;SDS011;57119;52.516;13.508;2023-11-21T01:13:06;33.53;;;12.20;;
69822;SDS011;57119;52.516;13.508;2023-11-21T01:15:32;32.65;;;11.32;;
69822;SDS011;57119;52.516;13.508;2023-11-21T01:17:57;36.57;;;12.17;;
69822;SDS011;57119;52.516;13.508;2023-11-21T01:20:23;33.83;;;13.03;;
69822;SDS011;57119;52.516;13.508;2023-11-21T01:22:48;36.30;;;12.20;;
69822;SDS011;57119;52.516;13.508;2023-11-21T01:25:16;28.80;;;12.77;;
69822;SDS011;57119;52.516;13.508;2023-11-21T01:27:42;40.23;;;13.33;;
69822;SDS011;57119;52.516;13.508;2023-11-21T01:30:08;39.13;;;13.70;;
69822;SDS011;57119;52.516;13.508;2023-11-21T01:32:35;36.67;;;13.45;;
69822;SDS011;57119;52.516;13.508;2023-11-21T01:35:01;44.50;;;14.27;;
69822;SDS011;57119;52.516;13.508;2023-11-21T01:37:27;41.63;;;14.02;;
69822;SDS011;57119;52.516;13.508;2023-11-21T01:39:55;40.72;;;14.73;;
69822;SDS011;57119;52.516;13.508;2023-11-21T01:42:21;41.30;;;15.97;;
69822;SDS011;57119;52.516;13.508;2023-11-21T01:44:46;45.63;;;15.00;;
69822;SDS011;57119;52.516;13.508;2023-11-21T01:47:11;48.83;;;15.00;;
69822;SDS011;57119;52.516;13.508;2023-11-21T01:49:38;43.53;;;15.17;;
69822;SDS011;57119;52.516;13.508;2023-11-21T01:52:04;47.55;;;15.60;;
69822;SDS011;57119;52.516;13.508;2023-11-21T01:54:31;43.58;;;14.88;;
69822;SDS011;57119;52.516;13.508;2023-11-21T01:57:00;48.17;;;14.77;;
69822;SDS011;57119;52.516;13.508;2023-11-21T01:59:30;46.10;;;15.77;;
69822;SDS011;57119;52.516;13.508;2023-11-21T02:02:00;49.35;;;15.25;;
69822;SDS011;57119;52.516;13.508;2023-11-21T02:04:25;49.57;;;14.80;;
69822;SDS011;57119;52.516;13.508;2023-11-21T02:06:51;52.22;;;15.75;;
69822;SDS011;57119;52.516;13.508;2023-11-21T02:09:16;53.00;;;15.03;;
69822;SDS011;57119;52.516;13.508;2023-11-21T02:11:42;55.63;;;14.53;;
69822;SDS011;57119;52.516;13.508;2023-11-21T02:14:09;61.28;;;15.85;;
69822;SDS011;57119;52.516;13.508;2023-11-21T02:16:35;39.47;;;12.70;;
69822;SDS011;57119;52.516;13.508;2023-11-21T02:19:01;47.55;;;13.88;;
69822;SDS011;57119;52.516;13.508;2023-11-21T02:21:31;46.28;;;13.05;;
69822;SDS011;57119;52.516;13.508;2023-11-21T02:23:57;40.40;;;12.57;;
69822;SDS011;57119;52.516;13.508;2023-11-21T02:26:23;40.50;;;11.02;;
69822;SDS011;57119;52.516;13.508;2023-11-21T02:28:50;39.50;;;11.43;;
69822;SDS011;57119;52.516;13.508;2023-11-21T02:31:18;30.98;;;9.60;;
69822;SDS011;57119;52.516;13.508;2023-11-21T02:33:44;27.53;;;8.90;;
69822;SDS011;57119;52.516;13.508;2023-11-21T02:36:09;26.90;;;9.33;;
69822;SDS011;57119;52.516;13.508;2023-11-21T02:38:34;25.67;;;9.15;;
69822;SDS011;57119;52.516;13.508;2023-11-21T02:41:00;24.93;;;8.80;;
69822;SDS011;57119;52.516;13.508;2023-11-21T02:43:25;21.77;;;8.90;;
69822;SDS011;57119;52.516;13.508;2023-11-21T02:45:50;24.23;;;7.77;;
69822;SDS011;57119;52.516;13.508;2023-11-21T02:48:16;22.30;;;7.30;;
69822;SDS011;57119;52.516;13.508;2023-11-21T02:50:41;19.50;;;7.10;;
69822;SDS011;57119;52.516;13.508;2023-11-21T02:53:08;20.00;;;6.63;;
69822;SDS011;57119;52.516;13.508;2023-11-21T02:55:35;20.60;;;7.05;;
69822;SDS011;57119;52.516;13.508;2023-11-21T02:58:01;19.65;;;7.00;;
69822;SDS011;57119;52.516;13.508;2023-11-21T03:00:28;17.70;;;7.27;;
69822;SDS011;57119;52.516;13.508;2023-11-21T03:02:55;14.30;;;6.45;;
69822;SDS011;57119;52.516;13.508;2023-11-21T03:05:21;15.85;;;6.60;;
69822;SDS011;57119;52.516;13.508;2023-11-21T03:07:46;20.03;;;7.00;;
69822;SDS011;57119;52.516;13.508;2023-11-21T03:10:11;17.77;;;7.07;;
69822;SDS011;57119;52.516;13.508;2023-11-21T03:12:37;14.90;;;6.13;;
69822;SDS011;57119;52.516;13.508;2023-11-21T03:15:04;15.23;;;6.30;;
69822;SDS011;57119;52.516;13.508;2023-11-21T03:17:30;17.25;;;7.07;;
69822;SDS011;57119;52.516;13.508;2023-11-21T03:19:56;16.23;;;6.27;;
69822;SDS011;57119;52.516;13.508;2023-11-21T03:22:22;15.10;;;6.53;;
69822;SDS011;57119;52.516;13.508;2023-11-21T03:24:47;14.33;;;5.90;;
69822;SDS011;57119;52.516;13.508;2023-11-21T03:27:13;14.87;;;6.70;;
69822;SDS011;57119;52.516;13.508;2023-11-21T03:29:38;14.80;;;6.50;;
69822;SDS011;57119;52.516;13.508;2023-11-21T03:32:04;14.07;;;6.15;;
69822;SDS011;57119;52.516;13.508;2023-11-21T03:34:30;13.80;;;6.47;;
69822;SDS011;57119;52.516;13.508;2023-11-21T03:36:55;15.93;;;6.13;;
69822;SDS011;57119;52.516;13.508;2023-11-21T03:39:20;15.07;;;6.30;;
69822;SDS011;57119;52.516;13.508;2023-11-21T03:41:47;16.10;;;6.13;;
69822;SDS011;57119;52.516;13.508;2023-11-21T03:44:13;16.77;;;7.23;;
69822;SDS011;57119;52.516;13.508;2023-11-21T03:46:38;15.35;;;7.05;;
69822;SDS011;57119;52.516;13.508;2023-11-21T03:49:04;14.47;;;6.87;;
69822;SDS011;57119;52.516;13.508;2023-11-21T03:51:29;14.97;;;5.70;;
69822;SDS011;57119;52.516;13.508;2023-11-21T03:53:55;11.70;;;5.30;;
69822;SDS011;57119;52.516;13.508;2023-11-21T03:56:20;16.77;;;6.27;;
69822;SDS011;57119;52.516;13.508;2023-11-21T03:58:48;12.35;;;4.97;;
69822;SDS011;57119;52.516;13.508;2023-11-21T04:01:21;13.25;;;6.05;;
69822;SDS011;57119;52.516;13.508;2023-11-21T04:03:47;11.67;;;5.00;;
69822;SDS011;57119;52.516;13.508;2023-11-21T04:06:12;15.82;;;5.85;;
69822;SDS011;57119;52.516;13.508;2023-11-21T04:08:38;13.37;;;5.60;;
69822;SDS011;57119;52.516;13.508;2023-11-21T04:11:03;14.33;;;5.63;;
69822;SDS011;57119;52.516;13.508;2023-11-21T04:13:29;12.60;;;5.30;;
69822;SDS011;57119;52.516;13.508;2023-11-21T04:15:55;14.65;;;5.68;;
69822;SDS011;57119;52.516;13.508;2023-11-21T04:18:21;14.07;;;5.63;;
69822;SDS011;57119;52.516;13.508;2023-11-21T04:20:46;13.40;;;6.13;;
69822;SDS011;57119;52.516;13.508;2023-11-21T04:23:13;13.25;;;5.70;;
69822;SDS011;57119;52.516;13.508;2023-11-21T04:25:39;12.53;;;5.20;;
69822;SDS011;57119;52.516;13.508;2023-11-21T04:28:04;12.93;;;5.43;;
69822;SDS011;57119;52.516;13.508;2023-11-21T04:30:29;11.27;;;4.90;;
69822;SDS011;57119;52.516;13.508;2023-11-21T04:32:54;12.23;;;4.97;;
69822;SDS011;57119;52.516;13.508;2023-11-21T04:35:20;11.90;;;5.03;;
69822;SDS011;57119;52.516;13.508;2023-11-21T04:37:45;13.47;;;4.67;;
69822;SDS011;57119;52.516;13.508;2023-11-21T04:40:11;11.13;;;4.20;;
69822;SDS011;57119;52.516;13.508;2023-11-21T04:42:36;11.40;;;4.20;;
69822;SDS011;57119;52.516;13.508;2023-11-21T04:45:05;12.57;;;4.78;;
69822;SDS011;57119;52.516;13.508;2023-11-21T04:47:34;11.80;;;4.70;;
69822;SDS011;57119;52.516;13.508;2023-11-21T04:50:01;11.15;;;4.40;;
69822;SDS011;57119;52.516;13.508;2023-11-21T04:52:28;11.30;;;5.07;;
69822;SDS011;57119;52.516;13.508;2023-11-21T04:54:53;11.47;;;4.23;;
69822;SDS011;57119;52.516;13.508;2023-11-21T04:57:19;12.43;;;4.60;;
69822;SDS011;57119;52.516;13.508;2023-11-21T04:59:45;11.05;;;4.43;;
69822;SDS011;57119;52.516;13.508;2023-11-21T05:02:11;10.40;;;4.23;;
69822;SDS011;57119;52.516;13.508;2023-11-21T05:04:37;11.20;;;4.45;;
69822;SDS011;57119;52.516;13.508;2023-11-21T05:07:02;9.77;;;4.00;;
69822;SDS011;57119;52.516;13.508;2023-11-21T05:09:28;10.80;;;4.05;;
69822;SDS011;57119;52.516;13.508;2023-11-21T05:11:56;9.67;;;3.73;;
69822;SDS011;57119;52.516;13.508;2023-11-21T05:14:22;9.82;;;3.50;;
69822;SDS011;57119;52.516;13.508;2023-11-21T05:16:47;8.53;;;3.10;;
69822;SDS011;57119;52.516;13.508;2023-11-21T05:19:13;10.07;;;3.63;;
69822;SDS011;57119;52.516;13.508;2023-11-21T05:21:38;8.73;;;3.30;;
69822;SDS011;57119;52.516;13.508;2023-11-21T05:24:04;8.87;;;3.17;;
69822;SDS011;57119;52.516;13.508;2023-11-21T05:26:30;8.75;;;3.90;;
69822;SDS011;57119;52.516;13.508;2023-11-21T05:28:55;10.88;;;3.45;;
69822;SDS011;57119;52.516;13.508;2023-11-21T05:31:21;9.67;;;3.60;;
69822;SDS011;57119;52.516;13.508;2023-11-21T05:33:47;9.50;;;3.40;;
69822;SDS011;57119;52.516;13.508;2023-11-21T05:36:12;10.57;;;3.83;;
69822;SDS011;57119;52.516;13.508;2023-11-21T05:38:38;9.53;;;3.53;;
69822;SDS011;57119;52.516;13.508;2023-11-21T05:41:03;9.40;;;3.60;;
69822;SDS011;57119;52.516;13.508;2023-11-21T05:43:30;10.63;;;3.55;;
69822;SDS011;57119;52.516;13.508;2023-11-21T05:45:57;8.82;;;3.72;;
69822;SDS011;57119;52.516;13.508;2023-11-21T05:48:22;9.50;;;3.67;;
69822;SDS011;57119;52.516;13.508;2023-11-21T05:50:48;8.67;;;3.40;;
69822;SDS011;57119;52.516;13.508;2023-11-21T05:53:15;8.13;;;3.72;;
69822;SDS011;57119;52.516;13.508;2023-11-21T05:55:40;8.82;;;3.55;;
69822;SDS011;57119;52.516;13.508;2023-11-21T05:58:06;10.30;;;3.33;;
69822;SDS011;57119;52.516;13.508;2023-11-21T06:00:32;10.52;;;3.80;;
69822;SDS011;57119;52.516;13.508;2023-11-21T06:02:58;8.77;;;3.35;;
69822;SDS011;57119;52.516;13.508;2023-11-21T06:05:24;9.93;;;3.63;;
69822;SDS011;57119;52.516;13.508;2023-11-21T06:07:51;8.90;;;3.35;;
69822;SDS011;57119;52.516;13.508;2023-11-21T06:10:20;8.27;;;3.45;;
69822;SDS011;57119;52.516;13.508;2023-11-21T06:12:46;10.07;;;3.10;;
69822;SDS011;57119;52.516;13.508;2023-11-21T06:15:12;7.67;;;3.10;;
69822;SDS011;57119;52.516;13.508;2023-11-21T06:17:41;9.20;;;3.00;;
69822;SDS011;57119;52.516;13.508;2023-11-21T06:20:08;7.80;;;3.28;;
69822;SDS011;57119;52.516;13.508;2023-11-21T06:22:37;10.43;;;3.53;;
69822;SDS011;57119;52.516;13.508;2023-11-21T06:25:04;8.93;;;3.07;;
69822;SDS011;57119;52.516;13.508;2023-11-21T06:27:33;10.30;;;4.10;;
69822;SDS011;57119;52.516;13.508;2023-11-21T06:30:01;9.73;;;3.50;;
69822;SDS011;57119;52.516;13.508;2023-11-21T06:32:26;8.60;;;3.27;;
69822;SDS011;57119;52.516;13.508;2023-11-21T06:34:53;8.77;;;3.53;;
69822;SDS011;57119;52.516;13.508;2023-11-21T06:37:19;7.33;;;3.00;;
69822;SDS011;57119;52.516;13.508;2023-11-21T06:39:48;8.13;;;3.03;;
69822;SDS011;57119;52.516;13.508;2023-11-21T06:42:13;9.82;;;3.95;;
69822;SDS011;57119;52.516;13.508;2023-11-21T06:44:40;11.57;;;3.25;;
69822;SDS011;57119;52.516;13.508;2023-11-21T06:47:06;8.93;;;2.87;;
69822;SDS011;57119;52.516;13.508;2023-11-21T06:49:32;8.88;;;3.50;;
69822;SDS011;57119;52.516;13.508;2023-11-21T06:51:57;9.77;;;3.80;;
69822;SDS011;57119;52.516;13.508;2023-11-21T06:54:23;8.13;;;3.25;;
69822;SDS011;57119;52.516;13.508;2023-11-21T06:56:49;11.05;;;4.53;;
69822;SDS011;57119;52.516;13.508;2023-11-21T06:59:15;8.67;;;3.13;;
69822;SDS011;57119;52.516;13.508;2023-11-21T07:01:40;11.23;;;4.43;;
69822;SDS011;57119;52.516;13.508;2023-11-21T07:04:06;8.30;;;2.67;;
69822;SDS011;57119;52.516;13.508;2023-11-21T07:06:33;11.38;;;3.38;;
69822;SDS011;57119;52.516;13.508;2023-11-21T07:08:59;8.80;;;3.53;;
69822;SDS011;57119;52.516;13.508;2023-11-21T07:11:26;8.88;;;3.30;;
69822;SDS011;57119;52.516;13.508;2023-11-21T07:13:52;8.63;;;3.37;;
69822;SDS011;57119;52.516;13.508;2023-11-21T07:16:17;9.00;;;3.47;;
69822;SDS011;57119;52.516;13.508;2023-11-21T07:18:43;9.05;;;3.20;;
69822;SDS011;57119;52.516;13.508;2023-11-21T07:21:09;8.87;;;3.37;;
69822;SDS011;57119;52.516;13.508;2023-11-21T07:23:36;9.52;;;3.15;;
69822;SDS011;57119;52.516;13.508;2023-11-21T07:26:02;8.07;;;3.23;;
69822;SDS011;57119;52.516;13.508;2023-11-21T07:28:28;8.02;;;3.00;;
69822;SDS011;57119;52.516;13.508;2023-11-21T07:30:54;7.40;;;3.10;;
69822;SDS011;57119;52.516;13.508;2023-11-21T07:33:20;9.47;;;3.20;;
69822;SDS011;57119;52.516;13.508;2023-11-21T07:35:46;9.23;;;2.78;;
69822;SDS011;57119;52.516;13.508;2023-11-21T07:38:12;8.37;;;3.37;;
69822;SDS011;57119;52.516;13.508;2023-11-21T07:40:38;9.95;;;2.92;;
69822;SDS011;57119;52.516;13.508;2023-11-21T07:43:03;7.50;;;2.67;;
69822;SDS011;57119;52.516;13.508;2023-11-21T07:45:28;7.87;;;3.00;;
69822;SDS011;57119;52.516;13.508;2023-11-21T07:47:54;8.33;;;2.73;;
69822;SDS011;57119;52.516;13.508;2023-11-21T07:50:20;10.20;;;3.10;;
69822;SDS011;57119;52.516;13.508;2023-11-21T07:52:47;10.27;;;3.33;;
69822;SDS011;57119;52.516;13.508;2023-11-21T07:55:14;11.23;;;3.55;;
69822;SDS011;57119;52.516;13.508;2023-11-21T07:57:40;10.97;;;3.10;;
69822;SDS011;57119;52.516;13.508;2023-11-21T08:00:06;9.70;;;3.40;;
69822;SDS011;57119;52.516;13.508;2023-11-21T08:02:34;11.57;;;3.30;;
69822;SDS011;57119;52.516;13.508;2023-11-21T08:04:59;12.37;;;3.87;;
69822;SDS011;57119;52.516;13.508;2023-11-21T08:07:25;13.60;;;3.85;;
69822;SDS011;57119;52.516;13.508;2023-11-21T08:09:51;12.43;;;3.40;;
69822;SDS011;57119;52.516;13.508;2023-11-21T08:12:17;13.88;;;3.97;;
69822;SDS011;57119;52.516;13.508;2023-11-21T08:14:43;17.20;;;4.40;;
69822;SDS011;57119;52.516;13.508;2023-11-21T08:17:09;12.80;;;4.10;;
69822;SDS011;57119;52.516;13.508;2023-11-21T08:19:35;13.45;;;4.43;;
69822;SDS011;57119;52.516;13.508;2023-11-21T08:22:01;17.02;;;3.92;;
69822;SDS011;57119;52.516;13.508;2023-11-21T08:24:27;15.87;;;4.90;;
69822;SDS011;57119;52.516;13.508;2023-11-21T08:26:53;17.43;;;5.90;;
69822;SDS011;57119;52.516;13.508;2023-11-21T08:29:19;16.75;;;4.97;;
69822;SDS011;57119;52.516;13.508;2023-11-21T08:31:44;16.35;;;5.00;;
69822;SDS011;57119;52.516;13.508;2023-11-21T08:34:13;16.97;;;4.73;;
69822;SDS011;57119;52.516;13.508;2023-11-21T08:36:42;17.65;;;5.28;;
69822;SDS011;57119;52.516;13.508;2023-11-21T08:39:08;16.45;;;4.80;;
69822;SDS011;57119;52.516;13.508;2023-11-21T08:41:34;15.35;;;4.90;;
69822;SDS011;57119;52.516;13.508;2023-11-21T08:44:01;18.17;;;4.30;;
69822;SDS011;57119;52.516;13.508;2023-11-21T08:46:31;18.40;;;5.10;;
69822;SDS011;57119;52.516;13.508;2023-11-21T08:48:58;20.25;;;6.47;;
69822;SDS011;57119;52.516;13.508;2023-11-21T08:51:25;18.48;;;5.18;;
69822;SDS011;57119;52.516;13.508;2023-11-21T08:53:51;15.07;;;5.00;;
69822;SDS011;57119;52.516;13.508;2023-11-21T08:56:17;16.52;;;5.25;;
69822;SDS011;57119;52.516;13.508;2023-11-21T08:58:43;19.23;;;5.07;;
69822;SDS011;57119;52.516;13.508;2023-11-21T09:01:09;18.40;;;4.67;;
69822;SDS011;57119;52.516;13.508;2023-11-21T09:03:34;18.20;;;5.07;;
69822;SDS011;57119;52.516;13.508;2023-11-21T09:06:00;16.67;;;4.53;;
69822;SDS011;57119;52.516;13.508;2023-11-21T09:08:25;12.85;;;4.35;;
69822;SDS011;57119;52.516;13.508;2023-11-21T09:10:53;13.68;;;4.55;;
69822;SDS011;57119;52.516;13.508;2023-11-21T09:13:18;19.43;;;5.07;;
69822;SDS011;57119;52.516;13.508;2023-11-21T09:15:43;17.90;;;4.67;;
69822;SDS011;57119;52.516;13.508;2023-11-21T09:18:12;17.17;;;4.07;;
69822;SDS011;57119;52.516;13.508;2023-11-21T09:20:42;11.65;;;3.90;;
69822;SDS011;57119;52.516;13.508;2023-11-21T09:23:09;13.97;;;4.03;;
69822;SDS011;57119;52.516;13.508;2023-11-21T09:25:34;12.55;;;3.70;;
69822;SDS011;57119;52.516;13.508;2023-11-21T09:27:59;12.07;;;3.23;;
69822;SDS011;57119;52.516;13.508;2023-11-21T09:30:25;9.53;;;2.70;;
69822;SDS011;57119;52.516;13.508;2023-11-21T09:32:51;8.87;;;2.10;;
69822;SDS011;57119;52.516;13.508;2023-11-21T09:35:16;7.60;;;1.75;;
69822;SDS011;57119;52.516;13.508;2023-11-21T09:37:45;7.32;;;2.10;;
69822;SDS011;57119;52.516;13.508;2023-11-21T09:40:11;8.03;;;1.53;;
69822;SDS011;57119;52.516;13.508;2023-11-21T09:42:57;5.68;;;1.35;;
69822;SDS011;57119;52.516;13.508;2023-11-21T09:47:59;5.22;;;1.33;;
69822;SDS011;57119;52.516;13.508;2023-11-21T09:50:26;5.97;;;1.75;;
69822;SDS011;57119;52.516;13.508;2023-11-21T09:55:17;5.73;;;1.30;;
69822;SDS011;57119;52.516;13.508;2023-11-21T09:57:46;5.82;;;1.88;;
69822;SDS011;57119;52.516;13.508;2023-11-21T10:00:15;5.25;;;1.50;;
69822;SDS011;57119;52.516;13.508;2023-11-21T10:02:42;5.95;;;1.88;;
69822;SDS011;57119;52.516;13.508;2023-11-21T10:05:08;6.83;;;1.67;;
69822;SDS011;57119;52.516;13.508;2023-11-21T10:07:36;5.22;;;1.40;;
69822;SDS011;57119;52.516;13.508;2023-11-21T10:10:05;4.25;;;1.30;;
69822;SDS011;57119;52.516;13.508;2023-11-21T10:12:33;6.30;;;1.58;;
69822;SDS011;57119;52.516;13.508;2023-11-21T10:15:00;5.57;;;1.57;;
69822;SDS011;57119;52.516;13.508;2023-11-21T10:17:27;5.05;;;1.30;;
69822;SDS011;57119;52.516;13.508;2023-11-21T10:20:01;4.20;;;1.33;;
69822;SDS011;57119;52.516;13.508;2023-11-21T10:22:31;4.18;;;1.13;;
69822;SDS011;57119;52.516;13.508;2023-11-21T10:24:56;4.53;;;1.27;;
69822;SDS011;57119;52.516;13.508;2023-11-21T10:27:22;4.53;;;1.27;;
69822;SDS011;57119;52.516;13.508;2023-11-21T10:29:48;4.63;;;1.40;;
69822;SDS011;57119;52.516;13.508;2023-11-21T10:32:16;4.90;;;1.40;;
69822;SDS011;57119;52.516;13.508;2023-11-21T10:34:41;4.40;;;1.33;;
69822;SDS011;57119;52.516;13.508;2023-11-21T10:37:13;4.67;;;1.50;;
69822;SDS011;57119;52.516;13.508;2023-11-21T10:39:40;4.55;;;1.40;;
69822;SDS011;57119;52.516;13.508;2023-11-21T10:42:08;6.30;;;1.67;;
69822;SDS011;57119;52.516;13.508;2023-11-21T10:44:35;6.43;;;1.97;;
69822;SDS011;57119;52.516;13.508;2023-11-21T10:47:00;5.25;;;1.48;;
69822;SDS011;57119;52.516;13.508;2023-11-21T10:49:27;5.27;;;1.80;;
69822;SDS011;57119;52.516;13.508;2023-11-21T10:51:53;7.10;;;1.52;;
69822;SDS011;57119;52.516;13.508;2023-11-21T10:56:45;5.90;;;2.00;;
69822;SDS011;57119;52.516;13.508;2023-11-21T10:59:15;5.53;;;1.60;;
69822;SDS011;57119;52.516;13.508;2023-11-21T11:01:44;4.77;;;1.77;;
69822;SDS011;57119;52.516;13.508;2023-11-21T11:04:11;5.65;;;1.90;;
69822;SDS011;57119;52.516;13.508;2023-11-21T11:06:44;9.95;;;2.33;;
69822;SDS011;57119;52.516;13.508;2023-11-21T11:09:16;5.95;;;2.13;;
69822;SDS011;57119;52.516;13.508;2023-11-21T11:11:42;5.63;;;1.95;;
69822;SDS011;57119;52.516;13.508;2023-11-21T11:14:12;6.73;;;2.30;;
69822;SDS011;57119;52.516;13.508;2023-11-21T11:16:39;5.68;;;2.00;;
69822;SDS011;57119;52.516;13.508;2023-11-21T11:19:11;9.18;;;2.90;;
69822;SDS011;57119;52.516;13.508;2023-11-21T11:24:49;5.45;;;2.35;;
69822;SDS011;57119;52.516;13.508;2023-11-21T11:27:26;6.40;;;2.47;;
69822;SDS011;57119;52.516;13.508;2023-11-21T11:38:13;7.22;;;2.88;;
69822;SDS011;57119;52.516;13.508;2023-11-21T11:40:45;5.77;;;2.27;;
69822;SDS011;57119;52.516;13.508;2023-11-21T11:43:12;6.07;;;2.50;;
69822;SDS011;57119;52.516;13.508;2023-11-21T11:45:37;6.07;;;2.87;;
69822;SDS011;57119;52.516;13.508;2023-11-21T11:48:10;6.07;;;2.30;;
69822;SDS011;57119;52.516;13.508;2023-11-21T11:50:41;6.07;;;2.45;;
69822;SDS011;57119;52.516;13.508;2023-11-21T11:53:14;6.03;;;2.23;;
69822;SDS011;57119;52.516;13.508;2023-11-21T11:55:40;6.65;;;2.17;;
69822;SDS011;57119;52.516;13.508;2023-11-21T11:58:06;7.05;;;2.13;;
69822;SDS011;57119;52.516;13.508;2023-11-21T12:02:59;5.40;;;1.63;;
69822;SDS011;57119;52.516;13.508;2023-11-21T12:05:28;5.50;;;2.15;;
69822;SDS011;57119;52.516;13.508;2023-11-21T12:07:56;5.53;;;1.90;;
69822;SDS011;57119;52.516;13.508;2023-11-21T12:10:23;5.88;;;1.80;;
69822;SDS011;57119;52.516;13.508;2023-11-21T12:12:54;6.00;;;2.10;;
69822;SDS011;57119;52.516;13.508;2023-11-21T12:15:21;5.50;;;1.90;;
69822;SDS011;57119;52.516;13.508;2023-11-21T12:17:47;5.07;;;1.80;;
69822;SDS011;57119;52.516;13.508;2023-11-21T12:20:14;5.55;;;1.67;;
69822;SDS011;57119;52.516;13.508;2023-11-21T12:22:45;7.43;;;2.28;;
69822;SDS011;57119;52.516;13.508;2023-11-21T12:25:15;5.00;;;1.90;;
69822;SDS011;57119;52.516;13.508;2023-11-21T12:27:59;6.50;;;2.10;;
69822;SDS011;57119;52.516;13.508;2023-11-21T12:30:28;6.18;;;2.10;;
69822;SDS011;57119;52.516;13.508;2023-11-21T12:32:58;9.63;;;4.10;;
69822;SDS011;57119;52.516;13.508;2023-11-21T12:35:26;6.07;;;2.00;;
69822;SDS011;57119;52.516;13.508;2023-11-21T12:37:53;5.60;;;2.00;;
69822;SDS011;57119;52.516;13.508;2023-11-21T12:40:20;5.68;;;2.10;;
69822;SDS011;57119;52.516;13.508;2023-11-21T12:42:48;5.93;;;2.05;;
69822;SDS011;57119;52.516;13.508;2023-11-21T12:47:45;4.83;;;1.60;;
69822;SDS011;57119;52.516;13.508;2023-11-21T12:50:22;5.60;;;1.88;;
69822;SDS011;57119;52.516;13.508;2023-11-21T12:52:49;6.00;;;1.92;;
69822;SDS011;57119;52.516;13.508;2023-11-21T12:55:16;5.87;;;1.87;;
69822;SDS011;57119;52.516;13.508;2023-11-21T12:57:43;7.25;;;1.95;;
69822;SDS011;57119;52.516;13.508;2023-11-21T13:00:10;6.95;;;2.10;;
69822;SDS011;57119;52.516;13.508;2023-11-21T13:02:41;6.32;;;2.30;;
69822;SDS011;57119;52.516;13.508;2023-11-21T13:05:08;6.57;;;2.03;;
69822;SDS011;57119;52.516;13.508;2023-11-21T13:07:43;5.37;;;1.73;;
69822;SDS011;57119;52.516;13.508;2023-11-21T13:10:12;5.90;;;1.90;;
69822;SDS011;57119;52.516;13.508;2023-11-21T13:12:44;6.38;;;2.10;;
69822;SDS011;57119;52.516;13.508;2023-11-21T13:15:14;5.78;;;2.00;;
69822;SDS011;57119;52.516;13.508;2023-11-21T13:17:43;7.20;;;2.28;;
69822;SDS011;57119;52.516;13.508;2023-11-21T13:20:12;6.23;;;2.03;;
69822;SDS011;57119;52.516;13.508;2023-11-21T13:22:50;7.03;;;2.20;;
69822;SDS011;57119;52.516;13.508;2023-11-21T13:25:19;6.15;;;2.42;;
69822;SDS011;57119;52.516;13.508;2023-11-21T13:27:46;8.77;;;2.67;;
69822;SDS011;57119;52.516;13.508;2023-11-21T13:30:14;7.13;;;2.70;;
69822;SDS011;57119;52.516;13.508;2023-11-21T13:32:44;7.63;;;3.08;;
69822;SDS011;57119;52.516;13.508;2023-11-21T13:35:11;7.32;;;2.72;;
69822;SDS011;57119;52.516;13.508;2023-11-21T13:37:46;8.00;;;3.08;;
69822;SDS011;57119;52.516;13.508;2023-11-21T13:40:14;7.82;;;2.90;;
69822;SDS011;57119;52.516;13.508;2023-11-21T13:42:44;8.37;;;3.30;;
69822;SDS011;57119;52.516;13.508;2023-11-21T13:45:10;8.95;;;3.20;;
69822;SDS011;57119;52.516;13.508;2023-11-21T13:47:37;8.73;;;3.30;;
69822;SDS011;57119;52.516;13.508;2023-11-21T13:50:03;7.65;;;2.88;;
69822;SDS011;57119;52.516;13.508;2023-11-21T13:52:31;7.03;;;2.95;;
69822;SDS011;57119;52.516;13.508;2023-11-21T13:54:58;8.97;;;3.80;;
69822;SDS011;57119;52.516;13.508;2023-11-21T13:57:26;9.68;;;4.75;;
69822;SDS011;57119;52.516;13.508;2023-11-21T13:59:52;10.15;;;3.35;;
69822;SDS011;57119;52.516;13.508;2023-11-21T14:02:17;9.00;;;3.40;;
69822;SDS011;57119;52.516;13.508;2023-11-21T14:04:44;10.90;;;4.10;;
69822;SDS011;57119;52.516;13.508;2023-11-21T14:07:25;8.70;;;3.70;;
69822;SDS011;57119;52.516;13.508;2023-11-21T14:10:03;9.87;;;3.73;;
69822;SDS011;57119;52.516;13.508;2023-11-21T14:12:30;10.77;;;4.63;;
69822;SDS011;57119;52.516;13.508;2023-11-21T14:14:59;12.30;;;5.63;;
69822;SDS011;57119;52.516;13.508;2023-11-21T14:17:25;12.52;;;6.03;;
69822;SDS011;57119;52.516;13.508;2023-11-21T14:19:50;11.90;;;5.53;;
69822;SDS011;57119;52.516;13.508;2023-11-21T14:22:15;12.53;;;5.93;;
69822;SDS011;57119;52.516;13.508;2023-11-21T14:24:42;16.67;;;6.43;;
69822;SDS011;57119;52.516;13.508;2023-11-21T14:27:11;15.80;;;7.70;;
69822;SDS011;57119;52.516;13.508;2023-11-21T14:29:37;16.90;;;7.30;;
69822;SDS011;57119;52.516;13.508;2023-11-21T14:32:04;17.50;;;7.88;;
69822;SDS011;57119;52.516;13.508;2023-11-21T14:34:30;16.75;;;8.20;;
69822;SDS011;57119;52.516;13.508;2023-11-21T14:36:56;19.10;;;9.20;;
69822;SDS011;57119;52.516;13.508;2023-11-21T14:39:21;18.42;;;9.98;;
69822;SDS011;57119;52.516;13.508;2023-11-21T14:41:53;20.93;;;8.90;;
69822;SDS011;57119;52.516;13.508;2023-11-21T14:44:20;18.80;;;9.75;;
69822;SDS011;57119;52.516;13.508;2023-11-21T14:46:50;18.17;;;8.80;;